sensor_id;sensor_type;location;lat;lon;timestamp;pressure;altitude;pressure_sealevel;temperature;humidity
65983;BME280;52740;40.620;-8.640;2022-09-09T00:00:23;101752.50;;;19.83;100.00
65983;BME280;52740;40.620;-8.640;2022-09-09T00:02:28;101754.91;;;19.81;100.00
65983;BME280;52740;40.620;-8.640;2022-09-09T00:04:35;101752.50;;;19.83;100.00
65983;BME280;52740;40.620;-8.640;2022-09-09T00:06:46;101757.69;;;19.77;100.00
65983;BME280;52740;40.620;-8.640;2022-09-09T00:08:58;101754.91;;;19.77;100.00
65983;BME280;52740;40.620;-8.640;2022-09-09T00:11:03;101762.06;;;19.78;100.00
65983;BME280;52740;40.620;-8.640;2022-09-09T00:15:19;101750.13;;;19.82;100.00
65983;BME280;52740;40.620;-8.640;2022-09-09T00:19:50;101753.31;;;19.80;100.00
65983;BME280;52740;40.620;-8.640;2022-09-09T00:22:37;101752.50;;;19.79;100.00
65983;BME280;52740;40.620;-8.640;2022-09-09T00:24:40;101756.88;;;19.80;100.00
65983;BME280;52740;40.620;-8.640;2022-09-09T00:26:47;101756.50;;;19.75;100.00
65983;BME280;52740;40.620;-8.640;2022-09-09T00:28:56;101754.53;;;19.75;100.00
65983;BME280;52740;40.620;-8.640;2022-09-09T00:31:11;101754.09;;;19.80;100.00
65983;BME280;52740;40.620;-8.640;2022-09-09T00:33:13;101750.91;;;19.82;100.00
65983;BME280;52740;40.620;-8.640;2022-09-09T00:35:23;101750.50;;;19.84;100.00
65983;BME280;52740;40.620;-8.640;2022-09-09T00:37:26;101748.53;;;19.80;100.00
65983;BME280;52740;40.620;-8.640;2022-09-09T00:39:38;101736.28;;;19.74;100.00
65983;BME280;52740;40.620;-8.640;2022-09-09T00:44:00;101742.59;;;19.75;100.00
65983;BME280;52740;40.620;-8.640;2022-09-09T00:51:50;101726.06;;;19.50;100.00
65983;BME280;52740;40.620;-8.640;2022-09-09T00:56:12;101726.84;;;19.51;100.00
65983;BME280;52740;40.620;-8.640;2022-09-09T00:58:14;101727.25;;;19.46;100.00
65983;BME280;52740;40.620;-8.640;2022-09-09T01:00:22;101730.44;;;19.41;100.00
65983;BME280;52740;40.620;-8.640;2022-09-09T01:04:36;101724.06;;;19.40;100.00
65983;BME280;52740;40.620;-8.640;2022-09-09T01:06:37;101728.06;;;19.39;100.00
65983;BME280;52740;40.620;-8.640;2022-09-09T01:10:53;101732.03;;;19.38;100.00
65983;BME280;52740;40.620;-8.640;2022-09-09T01:13:00;101713.78;;;19.37;100.00
65983;BME280;52740;40.620;-8.640;2022-09-09T01:15:16;101728.84;;;19.36;100.00
65983;BME280;52740;40.620;-8.640;2022-09-09T01:17:37;101721.72;;;19.31;100.00
65983;BME280;52740;40.620;-8.640;2022-09-09T01:22:06;101725.31;;;19.32;100.00
65983;BME280;52740;40.620;-8.640;2022-09-09T01:26:57;101730.47;;;19.30;100.00
65983;BME280;52740;40.620;-8.640;2022-09-09T01:29:00;101734.44;;;19.32;100.00
65983;BME280;52740;40.620;-8.640;2022-09-09T01:31:11;101735.22;;;19.33;100.00
65983;BME280;52740;40.620;-8.640;2022-09-09T01:33:18;101723.72;;;19.31;100.00
65983;BME280;52740;40.620;-8.640;2022-09-09T01:37:31;101734.84;;;19.34;100.00
65983;BME280;52740;40.620;-8.640;2022-09-09T01:39:33;101736.78;;;19.38;100.00
65983;BME280;52740;40.620;-8.640;2022-09-09T01:41:38;101738.78;;;19.37;100.00
65983;BME280;52740;40.620;-8.640;2022-09-09T01:43:43;101731.63;;;19.40;100.00
65983;BME280;52740;40.620;-8.640;2022-09-09T01:45:45;101734.41;;;19.36;100.00
65983;BME280;52740;40.620;-8.640;2022-09-09T01:47:48;101729.66;;;19.33;100.00
65983;BME280;52740;40.620;-8.640;2022-09-09T01:49:54;101724.94;;;19.30;100.00
65983;BME280;52740;40.620;-8.640;2022-09-09T01:51:59;101716.97;;;19.32;100.00
65983;BME280;52740;40.620;-8.640;2022-09-09T01:54:08;101730.84;;;19.32;100.00
65983;BME280;52740;40.620;-8.640;2022-09-09T02:03:25;101724.09;;;19.36;100.00
65983;BME280;52740;40.620;-8.640;2022-09-09T02:05:41;101716.97;;;19.39;100.00
65983;BME280;52740;40.620;-8.640;2022-09-09T02:08:03;101721.69;;;19.42;100.00
65983;BME280;52740;40.620;-8.640;2022-09-09T02:10:32;101720.09;;;19.41;100.00
65983;BME280;52740;40.620;-8.640;2022-09-09T02:12:56;101712.97;;;19.36;100.00
65983;BME280;52740;40.620;-8.640;2022-09-09T02:15:11;101719.38;;;19.30;100.00
65983;BME280;52740;40.620;-8.640;2022-09-09T02:17:28;101724.53;;;19.28;100.00
65983;BME280;52740;40.620;-8.640;2022-09-09T02:19:54;101728.50;;;19.27;100.00
65983;BME280;52740;40.620;-8.640;2022-09-09T02:22:07;101723.34;;;19.18;100.00
65983;BME280;52740;40.620;-8.640;2022-09-09T02:24:08;101721.00;;;19.17;100.00
65983;BME280;52740;40.620;-8.640;2022-09-09T02:26:16;101728.91;;;19.22;100.00
65983;BME280;52740;40.620;-8.640;2022-09-09T02:28:25;101720.19;;;19.20;100.00
65983;BME280;52740;40.620;-8.640;2022-09-09T02:30:27;101727.34;;;19.21;100.00
65983;BME280;52740;40.620;-8.640;2022-09-09T02:32:34;101721.78;;;19.14;100.00
65983;BME280;52740;40.620;-8.640;2022-09-09T02:34:42;101729.34;;;19.17;100.00
65983;BME280;52740;40.620;-8.640;2022-09-09T02:36:45;101730.50;;;19.23;100.00
65983;BME280;52740;40.620;-8.640;2022-09-09T02:38:48;101735.25;;;19.19;100.00
65983;BME280;52740;40.620;-8.640;2022-09-09T02:40:52;101736.03;;;19.26;100.00
65983;BME280;52740;40.620;-8.640;2022-09-09T02:42:54;101734.03;;;19.27;100.00
65983;BME280;52740;40.620;-8.640;2022-09-09T02:44:55;101727.31;;;19.24;100.00
65983;BME280;52740;40.620;-8.640;2022-09-09T02:51:39;101735.25;;;19.26;100.00
65983;BME280;52740;40.620;-8.640;2022-09-09T02:54:08;101735.25;;;19.26;100.00
65983;BME280;52740;40.620;-8.640;2022-09-09T02:56:17;101726.53;;;19.24;100.00
65983;BME280;52740;40.620;-8.640;2022-09-09T02:58:22;101739.25;;;19.21;100.00
65983;BME280;52740;40.620;-8.640;2022-09-09T03:00:36;101742.00;;;19.21;100.00
65983;BME280;52740;40.620;-8.640;2022-09-09T03:02:37;101736.06;;;19.19;100.00
65983;BME280;52740;40.620;-8.640;2022-09-09T03:04:40;101727.75;;;19.16;100.00
65983;BME280;52740;40.620;-8.640;2022-09-09T03:06:44;101726.94;;;19.15;100.00
65983;BME280;52740;40.620;-8.640;2022-09-09T03:08:51;101724.56;;;19.14;100.00
65983;BME280;52740;40.620;-8.640;2022-09-09T03:10:58;101730.91;;;19.14;100.00
65983;BME280;52740;40.620;-8.640;2022-09-09T03:13:03;101729.31;;;19.13;100.00
65983;BME280;52740;40.620;-8.640;2022-09-09T03:15:08;101724.19;;;19.08;100.00
65983;BME280;52740;40.620;-8.640;2022-09-09T03:17:11;101719.81;;;19.11;100.00
65983;BME280;52740;40.620;-8.640;2022-09-09T03:19:20;101721.78;;;19.14;100.00
65983;BME280;52740;40.620;-8.640;2022-09-09T03:21:21;101707.50;;;19.15;100.00
65983;BME280;52740;40.620;-8.640;2022-09-09T03:23:23;101722.59;;;19.11;100.00
65983;BME280;52740;40.620;-8.640;2022-09-09T03:25:25;101723.38;;;19.15;100.00
65983;BME280;52740;40.620;-8.640;2022-09-09T03:27:27;101717.00;;;19.18;100.00
65983;BME280;52740;40.620;-8.640;2022-09-09T03:29:29;101721.00;;;19.17;100.00
65983;BME280;52740;40.620;-8.640;2022-09-09T03:31:33;101717.00;;;19.18;100.00
65983;BME280;52740;40.620;-8.640;2022-09-09T03:33:34;101718.59;;;19.19;100.00
65983;BME280;52740;40.620;-8.640;2022-09-09T03:35:37;101708.28;;;19.19;100.00
65983;BME280;52740;40.620;-8.640;2022-09-09T03:37:37;101712.66;;;19.17;100.00
65983;BME280;52740;40.620;-8.640;2022-09-09T03:39:39;101702.75;;;19.16;100.00
65983;BME280;52740;40.620;-8.640;2022-09-09T03:41:41;101705.91;;;19.14;100.00
65983;BME280;52740;40.620;-8.640;2022-09-09T03:43:42;101706.75;;;19.08;100.00
65983;BME280;52740;40.620;-8.640;2022-09-09T03:45:46;101701.56;;;19.10;100.00
65983;BME280;52740;40.620;-8.640;2022-09-09T03:47:48;101700.38;;;19.11;100.00
65983;BME280;52740;40.620;-8.640;2022-09-09T03:49:49;101701.19;;;19.08;100.00
65983;BME280;52740;40.620;-8.640;2022-09-09T03:51:50;101697.19;;;19.09;100.00
65983;BME280;52740;40.620;-8.640;2022-09-09T03:53:50;101700.34;;;19.14;100.00
65983;BME280;52740;40.620;-8.640;2022-09-09T03:55:53;101707.13;;;19.17;100.00
65983;BME280;52740;40.620;-8.640;2022-09-09T03:58:01;101716.25;;;19.17;100.00
65983;BME280;52740;40.620;-8.640;2022-09-09T04:00:07;101703.13;;;19.21;100.00
65983;BME280;52740;40.620;-8.640;2022-09-09T04:02:17;101713.81;;;19.23;100.00
65983;BME280;52740;40.620;-8.640;2022-09-09T04:04:18;101713.44;;;19.24;100.00
65983;BME280;52740;40.620;-8.640;2022-09-09T04:06:20;101711.81;;;19.27;100.00
65983;BME280;52740;40.620;-8.640;2022-09-09T04:08:22;101713.38;;;19.31;100.00
65983;BME280;52740;40.620;-8.640;2022-09-09T04:10:26;101717.75;;;19.32;100.00
65983;BME280;52740;40.620;-8.640;2022-09-09T04:12:29;101697.94;;;19.30;100.00
65983;BME280;52740;40.620;-8.640;2022-09-09T04:14:29;101705.88;;;19.28;100.00
65983;BME280;52740;40.620;-8.640;2022-09-09T04:16:32;101705.88;;;19.25;100.00
65983;BME280;52740;40.620;-8.640;2022-09-09T04:18:34;101695.97;;;19.24;100.00
65983;BME280;52740;40.620;-8.640;2022-09-09T04:20:35;101696.38;;;19.26;100.00
65983;BME280;52740;40.620;-8.640;2022-09-09T04:22:36;101692.41;;;19.23;100.00
65983;BME280;52740;40.620;-8.640;2022-09-09T04:24:39;101697.94;;;19.27;100.00
65983;BME280;52740;40.620;-8.640;2022-09-09T04:26:41;101689.63;;;19.20;100.00
65983;BME280;52740;40.620;-8.640;2022-09-09T04:28:42;101688.44;;;19.21;100.00
65983;BME280;52740;40.620;-8.640;2022-09-09T04:30:50;101677.72;;;19.19;100.00
65983;BME280;52740;40.620;-8.640;2022-09-09T04:32:51;101690.41;;;19.24;100.00
65983;BME280;52740;40.620;-8.640;2022-09-09T04:34:51;101685.25;;;19.22;100.00
65983;BME280;52740;40.620;-8.640;2022-09-09T04:36:52;101686.84;;;19.20;100.00
65983;BME280;52740;40.620;-8.640;2022-09-09T04:38:53;101697.19;;;19.16;100.00
65983;BME280;52740;40.620;-8.640;2022-09-09T04:40:54;101684.09;;;19.20;100.00
65983;BME280;52740;40.620;-8.640;2022-09-09T04:42:58;101685.28;;;19.19;100.00
65983;BME280;52740;40.620;-8.640;2022-09-09T04:44:59;101676.56;;;19.17;100.00
65983;BME280;52740;40.620;-8.640;2022-09-09T04:47:00;101678.94;;;19.15;100.00
65983;BME280;52740;40.620;-8.640;2022-09-09T04:49:00;101690.84;;;19.15;100.00
65983;BME280;52740;40.620;-8.640;2022-09-09T04:51:06;101683.31;;;19.16;100.00
65983;BME280;52740;40.620;-8.640;2022-09-09T04:53:08;101685.69;;;19.14;100.00
65983;BME280;52740;40.620;-8.640;2022-09-09T04:55:11;101690.03;;;19.15;100.00
65983;BME280;52740;40.620;-8.640;2022-09-09T04:57:14;101686.91;;;19.13;100.00
65983;BME280;52740;40.620;-8.640;2022-09-09T04:59:15;101686.47;;;19.21;100.00
65983;BME280;52740;40.620;-8.640;2022-09-09T05:01:21;101687.63;;;19.24;100.00
65983;BME280;52740;40.620;-8.640;2022-09-09T05:03:24;101690.00;;;19.22;100.00
65983;BME280;52740;40.620;-8.640;2022-09-09T05:05:24;101691.56;;;19.26;100.00
65983;BME280;52740;40.620;-8.640;2022-09-09T05:07:26;101691.59;;;19.30;100.00
65983;BME280;52740;40.620;-8.640;2022-09-09T05:09:27;101689.59;;;19.30;100.00
65983;BME280;52740;40.620;-8.640;2022-09-09T05:11:30;101689.97;;;19.32;100.00
65983;BME280;52740;40.620;-8.640;2022-09-09T05:13:41;101695.50;;;19.36;100.00
65983;BME280;52740;40.620;-8.640;2022-09-09T05:15:42;101691.53;;;19.37;100.00
65983;BME280;52740;40.620;-8.640;2022-09-09T05:17:43;101689.19;;;19.32;100.00
65983;BME280;52740;40.620;-8.640;2022-09-09T05:19:44;101697.09;;;19.37;100.00
65983;BME280;52740;40.620;-8.640;2022-09-09T05:21:45;101688.38;;;19.35;100.00
65983;BME280;52740;40.620;-8.640;2022-09-09T05:23:47;101698.69;;;19.42;100.00
65983;BME280;52740;40.620;-8.640;2022-09-09T05:25:58;101695.53;;;19.43;100.00
65983;BME280;52740;40.620;-8.640;2022-09-09T05:27:59;101699.88;;;19.37;100.00
65983;BME280;52740;40.620;-8.640;2022-09-09T05:30:02;101697.91;;;19.38;100.00
65983;BME280;52740;40.620;-8.640;2022-09-09T05:32:03;101698.28;;;19.40;100.00
65983;BME280;52740;40.620;-8.640;2022-09-09T05:34:04;101687.97;;;19.36;100.00
65983;BME280;52740;40.620;-8.640;2022-09-09T05:36:07;101699.88;;;19.41;100.00
65983;BME280;52740;40.620;-8.640;2022-09-09T05:38:08;101701.06;;;19.40;100.00
65983;BME280;52740;40.620;-8.640;2022-09-09T05:40:09;101694.72;;;19.46;100.00
65983;BME280;52740;40.620;-8.640;2022-09-09T05:42:11;101695.50;;;19.50;100.00
65983;BME280;52740;40.620;-8.640;2022-09-09T05:44:12;101699.47;;;19.49;100.00
65983;BME280;52740;40.620;-8.640;2022-09-09T05:46:22;101697.06;;;19.55;100.00
65983;BME280;52740;40.620;-8.640;2022-09-09T05:48:27;101704.19;;;19.59;100.00
65983;BME280;52740;40.620;-8.640;2022-09-09T05:50:28;101705.34;;;19.62;100.00
65983;BME280;52740;40.620;-8.640;2022-09-09T05:52:30;101705.78;;;19.53;100.00
65983;BME280;52740;40.620;-8.640;2022-09-09T05:54:32;101705.78;;;19.53;100.00
65983;BME280;52740;40.620;-8.640;2022-09-09T05:56:33;101698.66;;;19.56;100.00
65983;BME280;52740;40.620;-8.640;2022-09-09T05:58:34;101706.59;;;19.54;100.00
65983;BME280;52740;40.620;-8.640;2022-09-09T06:00:37;101711.34;;;19.53;100.00
65983;BME280;52740;40.620;-8.640;2022-09-09T06:02:38;101699.47;;;19.49;100.00
65983;BME280;52740;40.620;-8.640;2022-09-09T06:04:39;101709.38;;;19.50;100.00
65983;BME280;52740;40.620;-8.640;2022-09-09T06:06:40;101708.19;;;19.51;100.00
65983;BME280;52740;40.620;-8.640;2022-09-09T06:08:54;101704.63;;;19.51;100.00
65983;BME280;52740;40.620;-8.640;2022-09-09T06:11:03;101714.94;;;19.50;100.00
65983;BME280;52740;40.620;-8.640;2022-09-09T06:13:05;101701.09;;;19.43;100.00
65983;BME280;52740;40.620;-8.640;2022-09-09T06:15:06;101698.31;;;19.43;100.00
65983;BME280;52740;40.620;-8.640;2022-09-09T06:17:07;101706.66;;;19.43;100.00
65983;BME280;52740;40.620;-8.640;2022-09-09T06:19:08;101711.38;;;19.46;100.00
65983;BME280;52740;40.620;-8.640;2022-09-09T06:21:13;101719.69;;;19.50;100.00
65983;BME280;52740;40.620;-8.640;2022-09-09T06:23:15;101718.94;;;19.46;100.00
65983;BME280;52740;40.620;-8.640;2022-09-09T06:25:16;101718.53;;;19.47;100.00
65983;BME280;52740;40.620;-8.640;2022-09-09T06:30:11;101724.47;;;19.49;100.00
65983;BME280;52740;40.620;-8.640;2022-09-09T06:32:14;101726.41;;;19.59;100.00
65983;BME280;52740;40.620;-8.640;2022-09-09T06:34:15;101728.78;;;19.57;100.00
65983;BME280;52740;40.620;-8.640;2022-09-09T06:36:23;101727.22;;;19.56;100.00
65983;BME280;52740;40.620;-8.640;2022-09-09T06:38:24;101737.94;;;19.54;100.00
65983;BME280;52740;40.620;-8.640;2022-09-09T06:40:25;101728.84;;;19.50;100.00
65983;BME280;52740;40.620;-8.640;2022-09-09T06:42:27;101737.56;;;19.49;100.00
65983;BME280;52740;40.620;-8.640;2022-09-09T06:44:39;101735.56;;;19.53;100.00
65983;BME280;52740;40.620;-8.640;2022-09-09T06:46:44;101734.41;;;19.47;100.00
65983;BME280;52740;40.620;-8.640;2022-09-09T06:48:49;101733.56;;;19.53;100.00
65983;BME280;52740;40.620;-8.640;2022-09-09T06:51:01;101747.88;;;19.55;100.00
65983;BME280;52740;40.620;-8.640;2022-09-09T06:53:03;101747.47;;;19.53;100.00
65983;BME280;52740;40.620;-8.640;2022-09-09T06:55:04;101750.66;;;19.55;100.00
65983;BME280;52740;40.620;-8.640;2022-09-09T06:57:06;101750.25;;;19.53;100.00
65983;BME280;52740;40.620;-8.640;2022-09-09T06:59:09;101749.88;;;19.51;100.00
65983;BME280;52740;40.620;-8.640;2022-09-09T07:01:14;101756.97;;;19.59;100.00
65983;BME280;52740;40.620;-8.640;2022-09-09T07:03:15;101749.47;;;19.56;100.00
65983;BME280;52740;40.620;-8.640;2022-09-09T07:05:16;101752.63;;;19.58;100.00
65983;BME280;52740;40.620;-8.640;2022-09-09T07:07:19;101751.41;;;19.63;100.00
65983;BME280;52740;40.620;-8.640;2022-09-09T07:09:20;101750.22;;;19.64;100.00
65983;BME280;52740;40.620;-8.640;2022-09-09T07:11:28;101753.78;;;19.64;100.00
65983;BME280;52740;40.620;-8.640;2022-09-09T07:13:31;101764.13;;;19.64;100.00
65983;BME280;52740;40.620;-8.640;2022-09-09T07:15:32;101750.25;;;19.60;100.00
65983;BME280;52740;40.620;-8.640;2022-09-09T07:17:34;101759.72;;;19.73;100.00
65983;BME280;52740;40.620;-8.640;2022-09-09T07:19:35;101763.28;;;19.74;100.00
65983;BME280;52740;40.620;-8.640;2022-09-09T07:21:38;101760.47;;;19.77;100.00
65983;BME280;52740;40.620;-8.640;2022-09-09T07:23:41;101760.47;;;19.77;100.00
65983;BME280;52740;40.620;-8.640;2022-09-09T07:25:45;101765.25;;;19.73;100.00
65983;BME280;52740;40.620;-8.640;2022-09-09T07:27:48;101763.63;;;19.79;100.00
65983;BME280;52740;40.620;-8.640;2022-09-09T07:29:49;101758.84;;;19.84;100.00
65983;BME280;52740;40.620;-8.640;2022-09-09T07:31:50;101765.19;;;19.88;100.00
65983;BME280;52740;40.620;-8.640;2022-09-09T07:33:57;101764.75;;;19.93;100.00
65983;BME280;52740;40.620;-8.640;2022-09-09T07:36:08;101762.41;;;19.91;100.00
65983;BME280;52740;40.620;-8.640;2022-09-09T07:38:11;101762.38;;;19.95;100.00
65983;BME280;52740;40.620;-8.640;2022-09-09T07:40:12;101762.75;;;19.97;100.00
65983;BME280;52740;40.620;-8.640;2022-09-09T07:42:14;101778.25;;;19.98;100.00
65983;BME280;52740;40.620;-8.640;2022-09-09T07:44:18;101769.09;;;20.01;100.00
65983;BME280;52740;40.620;-8.640;2022-09-09T07:46:24;101775.44;;;19.98;100.00
65983;BME280;52740;40.620;-8.640;2022-09-09T07:48:26;101777.88;;;19.92;100.00
65983;BME280;52740;40.620;-8.640;2022-09-09T07:50:26;101772.31;;;19.96;100.00
65983;BME280;52740;40.620;-8.640;2022-09-09T07:52:27;101772.28;;;19.92;100.00
65983;BME280;52740;40.620;-8.640;2022-09-09T07:54:31;101784.22;;;19.93;100.00
65983;BME280;52740;40.620;-8.640;2022-09-09T07:56:34;101783.03;;;19.94;100.00
65983;BME280;52740;40.620;-8.640;2022-09-09T07:58:39;101771.47;;;19.99;100.00
65983;BME280;52740;40.620;-8.640;2022-09-09T08:00:40;101780.22;;;19.97;100.00
65983;BME280;52740;40.620;-8.640;2022-09-09T08:02:44;101776.22;;;20.02;100.00
65983;BME280;52740;40.620;-8.640;2022-09-09T08:04:46;101778.97;;;20.05;100.00
65983;BME280;52740;40.620;-8.640;2022-09-09T08:06:56;101781.31;;;20.17;100.00
65983;BME280;52740;40.620;-8.640;2022-09-09T08:08:59;101778.50;;;20.21;100.00
65983;BME280;52740;40.620;-8.640;2022-09-09T08:11:14;101776.84;;;20.34;100.00
65983;BME280;52740;40.620;-8.640;2022-09-09T08:13:16;101778.00;;;20.40;100.00
65983;BME280;52740;40.620;-8.640;2022-09-09T08:15:19;101783.88;;;20.49;100.00
65983;BME280;52740;40.620;-8.640;2022-09-09T08:17:20;101765.22;;;20.46;100.00
65983;BME280;52740;40.620;-8.640;2022-09-09T08:19:21;101774.66;;;20.59;100.00
65983;BME280;52740;40.620;-8.640;2022-09-09T08:21:24;101779.84;;;20.61;100.00
65983;BME280;52740;40.620;-8.640;2022-09-09T08:23:29;101778.00;;;20.40;100.00
65983;BME280;52740;40.620;-8.640;2022-09-09T08:25:30;101770.88;;;20.36;100.00
65983;BME280;52740;40.620;-8.640;2022-09-09T08:27:30;101776.03;;;20.37;100.00
65983;BME280;52740;40.620;-8.640;2022-09-09T08:29:32;101771.19;;;20.45;100.00
65983;BME280;52740;40.620;-8.640;2022-09-09T08:31:36;101774.34;;;20.50;100.00
65983;BME280;52740;40.620;-8.640;2022-09-09T08:33:40;101774.41;;;20.43;100.00
65983;BME280;52740;40.620;-8.640;2022-09-09T08:35:50;101769.16;;;20.52;100.00
65983;BME280;52740;40.620;-8.640;2022-09-09T08:37:53;101776.63;;;20.62;100.00
65983;BME280;52740;40.620;-8.640;2022-09-09T08:39:54;101777.41;;;20.66;100.00
65983;BME280;52740;40.620;-8.640;2022-09-09T08:44:10;101778.91;;;20.75;100.00
65983;BME280;52740;40.620;-8.640;2022-09-09T08:46:32;101772.34;;;20.95;100.00
65983;BME280;52740;40.620;-8.640;2022-09-09T08:50:44;101766.66;;;21.09;100.00
65983;BME280;52740;40.620;-8.640;2022-09-09T08:52:59;101783.28;;;21.20;100.00
65983;BME280;52740;40.620;-8.640;2022-09-09T08:57:28;101776.78;;;21.30;100.00
65983;BME280;52740;40.620;-8.640;2022-09-09T08:59:32;101784.63;;;21.42;100.00
65983;BME280;52740;40.620;-8.640;2022-09-09T09:01:45;101784.91;;;21.51;100.00
65983;BME280;52740;40.620;-8.640;2022-09-09T09:08:48;101794.84;;;21.86;100.00
65983;BME280;52740;40.620;-8.640;2022-09-09T09:10:54;101788.69;;;22.02;100.00
65983;BME280;52740;40.620;-8.640;2022-09-09T09:12:59;101793.53;;;21.98;100.00
65983;BME280;52740;40.620;-8.640;2022-09-09T09:15:10;101784.34;;;21.64;100.00
65983;BME280;52740;40.620;-8.640;2022-09-09T09:17:24;101789.94;;;21.64;100.00
65983;BME280;52740;40.620;-8.640;2022-09-09T09:19:27;101792.50;;;21.81;100.00
65983;BME280;52740;40.620;-8.640;2022-09-09T09:21:40;101785.50;;;22.00;100.00
65983;BME280;52740;40.620;-8.640;2022-09-09T09:24:13;101788.47;;;22.16;100.00
65983;BME280;52740;40.620;-8.640;2022-09-09T09:26:19;101784.59;;;22.37;100.00
65983;BME280;52740;40.620;-8.640;2022-09-09T09:28:31;101780.94;;;22.13;100.00
65983;BME280;52740;40.620;-8.640;2022-09-09T09:30:42;101783.16;;;22.25;100.00
65983;BME280;52740;40.620;-8.640;2022-09-09T09:32:54;101782.06;;;22.46;100.00
65983;BME280;52740;40.620;-8.640;2022-09-09T09:34:58;101784.09;;;22.65;100.00
65983;BME280;52740;40.620;-8.640;2022-09-09T09:37:01;101791.38;;;22.86;100.00
65983;BME280;52740;40.620;-8.640;2022-09-09T09:39:07;101792.22;;;23.06;100.00
65983;BME280;52740;40.620;-8.640;2022-09-09T09:41:15;101788.78;;;23.18;100.00
65983;BME280;52740;40.620;-8.640;2022-09-09T09:43:21;101797.81;;;22.56;100.00
65983;BME280;52740;40.620;-8.640;2022-09-09T09:47:36;101800.84;;;22.42;100.00
65983;BME280;52740;40.620;-8.640;2022-09-09T09:49:57;101800.56;;;22.60;100.00
65983;BME280;52740;40.620;-8.640;2022-09-09T09:52:14;101801.78;;;22.59;100.00
65983;BME280;52740;40.620;-8.640;2022-09-09T09:54:27;101795.94;;;22.76;100.00
65983;BME280;52740;40.620;-8.640;2022-09-09T09:56:32;101810.41;;;22.68;100.00
65983;BME280;52740;40.620;-8.640;2022-09-09T10:00:53;101815.91;;;22.75;100.00
65983;BME280;52740;40.620;-8.640;2022-09-09T10:02:59;101817.22;;;22.67;100.00
65983;BME280;52740;40.620;-8.640;2022-09-09T10:05:19;101815.59;;;22.69;100.00
65983;BME280;52740;40.620;-8.640;2022-09-09T10:07:23;101819.97;;;22.43;100.00
65983;BME280;52740;40.620;-8.640;2022-09-09T10:09:29;101818.16;;;22.30;100.00
65983;BME280;52740;40.620;-8.640;2022-09-09T10:11:46;101821.34;;;22.32;100.00
65983;BME280;52740;40.620;-8.640;2022-09-09T10:19:15;101826.41;;;22.40;100.00
65983;BME280;52740;40.620;-8.640;2022-09-09T10:21:30;101833.31;;;22.56;100.00
65983;BME280;52740;40.620;-8.640;2022-09-09T10:23:55;101833.41;;;22.79;100.00
65983;BME280;52740;40.620;-8.640;2022-09-09T10:26:09;101829.34;;;22.57;100.00
65983;BME280;52740;40.620;-8.640;2022-09-09T10:35:35;101840.69;;;22.96;100.00
65983;BME280;52740;40.620;-8.640;2022-09-09T10:42:33;101842.28;;;23.20;100.00
65983;BME280;52740;40.620;-8.640;2022-09-09T10:54:45;101833.75;;;23.51;100.00
65983;BME280;52740;40.620;-8.640;2022-09-09T10:56:57;101845.66;;;23.55;100.00
65983;BME280;52740;40.620;-8.640;2022-09-09T10:59:00;101846.81;;;23.34;100.00
65983;BME280;52740;40.620;-8.640;2022-09-09T11:01:18;101840.41;;;23.57;100.00
65983;BME280;52740;40.620;-8.640;2022-09-09T11:03:26;101830.13;;;23.70;100.00
65983;BME280;52740;40.620;-8.640;2022-09-09T11:05:43;101838.63;;;23.86;100.00
65983;BME280;52740;40.620;-8.640;2022-09-09T11:07:58;101830.34;;;24.18;100.00
65983;BME280;52740;40.620;-8.640;2022-09-09T11:10:05;101833.53;;;24.53;100.00
65983;BME280;52740;40.620;-8.640;2022-09-09T11:12:13;101830.50;;;24.96;100.00
65983;BME280;52740;40.620;-8.640;2022-09-09T11:14:36;101829.13;;;25.33;100.00
65983;BME280;52740;40.620;-8.640;2022-09-09T11:19:00;101824.19;;;25.37;100.00
65983;BME280;52740;40.620;-8.640;2022-09-09T11:21:12;101824.34;;;25.62;100.00
65983;BME280;52740;40.620;-8.640;2022-09-09T11:23:20;101821.69;;;25.71;100.00
65983;BME280;52740;40.620;-8.640;2022-09-09T11:25:27;101823.31;;;25.56;100.00
65983;BME280;52740;40.620;-8.640;2022-09-09T11:28:04;101815.72;;;25.69;100.00
65983;BME280;52740;40.620;-8.640;2022-09-09T11:41:53;101823.03;;;25.79;100.00
65983;BME280;52740;40.620;-8.640;2022-09-09T11:43:54;101815.47;;;25.64;100.00
65983;BME280;52740;40.620;-8.640;2022-09-09T11:45:57;101826.84;;;25.28;100.00
65983;BME280;52740;40.620;-8.640;2022-09-09T11:48:00;101815.50;;;25.02;100.00
65983;BME280;52740;40.620;-8.640;2022-09-09T11:50:11;101820.53;;;24.95;100.00
65983;BME280;52740;40.620;-8.640;2022-09-09T11:52:38;101808.84;;;25.12;100.00
65983;BME280;52740;40.620;-8.640;2022-09-09T11:54:49;101805.50;;;25.18;100.00
65983;BME280;52740;40.620;-8.640;2022-09-09T11:56:50;101814.38;;;25.45;100.00
65983;BME280;52740;40.620;-8.640;2022-09-09T11:59:03;101812.69;;;25.76;100.00
65983;BME280;52740;40.620;-8.640;2022-09-09T12:01:30;101809.94;;;26.14;100.00
65983;BME280;52740;40.620;-8.640;2022-09-09T12:03:41;101807.34;;;25.94;100.00
65983;BME280;52740;40.620;-8.640;2022-09-09T12:05:45;101801.59;;;25.98;100.00
65983;BME280;52740;40.620;-8.640;2022-09-09T12:07:57;101801.47;;;25.76;100.00
65983;BME280;52740;40.620;-8.640;2022-09-09T12:14:21;101795.66;;;26.09;100.00
65983;BME280;52740;40.620;-8.640;2022-09-09T12:16:34;101796.25;;;26.29;100.00
65983;BME280;52740;40.620;-8.640;2022-09-09T12:18:37;101795.38;;;26.44;100.00
65983;BME280;52740;40.620;-8.640;2022-09-09T12:20:39;101785.59;;;26.49;100.00
65983;BME280;52740;40.620;-8.640;2022-09-09T12:27:47;101779.66;;;26.81;100.00
65983;BME280;52740;40.620;-8.640;2022-09-09T12:30:10;101776.75;;;26.98;100.00